Time;durP1;ratioP1;P1;durP2;ratioP2;P2;SDS_P1;SDS_P2;PMS_P1;PMS_P2;Temp;Humidity;BMP_temperature;BMP_pressure;BME280_temperature;BME280_humidity;BME280_pressure;Samples;Min_cycle;Max_cycle;Signal;HPM_P1;HPM_P2
2022/04/20 00:01:35;;;;;;;6.97;4.05;;;;;;;;;;6297562;22;20035;-50
2022/04/20 00:04:00;;;;;;;7.32;5.00;;;;;;;;;;6296393;22;20016;-48
2022/04/20 00:06:25;;;;;;;12.30;4.93;;;;;;;;;;6296290;22;20007;-50
2022/04/20 00:08:50;;;;;;;8.93;4.82;;;;;;;;;;6294175;22;20013;-50
2022/04/20 00:11:16;;;;;;;9.18;4.50;;;;;;;;;;6297527;22;20011;-49
2022/04/20 00:13:41;;;;;;;10.07;5.50;;;;;;;;;;6296281;22;20061;-51
2022/04/20 00:16:06;;;;;;;9.63;5.68;;;;;;;;;;6298460;22;20012;-49
2022/04/20 00:18:32;;;;;;;15.05;5.68;;;;;;;;;;6296368;22;20027;-48
2022/04/20 00:20:57;;;;;;;8.73;5.40;;;;;;;;;;6298564;22;20015;-53
2022/04/20 00:23:22;;;;;;;8.48;4.38;;;;;;;;;;6295592;22;20700;-49
2022/04/20 00:25:47;;;;;;;10.70;5.53;;;;;;;;;;6298801;22;20007;-49
2022/04/20 00:28:13;;;;;;;10.90;5.82;;;;;;;;;;6295516;22;20011;-50
2022/04/20 00:30:38;;;;;;;14.27;5.47;;;;;;;;;;6297802;22;20684;-50
2022/04/20 00:33:03;;;;;;;10.52;4.65;;;;;;;;;;6296901;22;20395;-53
2022/04/20 00:35:29;;;;;;;7.70;4.75;;;;;;;;;;6297265;22;20479;-48
2022/04/20 00:37:54;;;;;;;12.35;4.70;;;;;;;;;;6296900;22;20243;-49
2022/04/20 00:40:19;;;;;;;7.55;4.63;;;;;;;;;;6297192;22;20022;-50
2022/04/20 00:42:44;;;;;;;10.00;4.82;;;;;;;;;;6295729;22;20043;-48
2022/04/20 00:45:11;;;;;;;8.18;4.53;;;;;;;;;;6298129;22;20018;-50
2022/04/20 00:47:37;;;;;;;9.45;4.55;;;;;;;;;;6295216;22;20019;-50
2022/04/20 00:50:02;;;;;;;8.73;5.55;;;;;;;;;;6297100;22;20034;-49
2022/04/20 00:52:27;;;;;;;13.15;5.63;;;;;;;;;;6294392;22;20015;-50
2022/04/20 00:54:53;;;;;;;13.88;5.10;;;;;;;;;;6297932;22;20018;-47
2022/04/20 00:57:18;;;;;;;6.95;4.60;;;;;;;;;;6296491;22;20028;-53
2022/04/20 00:59:44;;;;;;;10.30;5.20;;;;;;;;;;6296508;22;20018;-51
2022/04/20 01:02:09;;;;;;;13.52;4.80;;;;;;;;;;6297053;22;20023;-50
2022/04/20 01:04:35;;;;;;;8.25;4.72;;;;;;;;;;6295410;22;20089;-49
2022/04/20 01:07:08;;;;;;;9.25;4.30;;;;;;;;;;6297781;22;20016;-52
2022/04/20 01:09:33;;;;;;;8.73;4.88;;;;;;;;;;6296336;22;20014;-53
2022/04/20 01:11:58;;;;;;;9.35;5.03;;;;;;;;;;6296045;22;20011;-49
2022/04/20 01:14:25;;;;;;;7.65;4.80;;;;;;;;;;6296348;22;20031;-49
2022/04/20 01:16:50;;;;;;;8.27;5.18;;;;;;;;;;6295500;22;20007;-49
2022/04/20 01:19:15;;;;;;;10.98;4.50;;;;;;;;;;6291132;22;20020;-51
2022/04/20 01:21:40;;;;;;;7.72;5.45;;;;;;;;;;6296029;22;20517;-51
2022/04/20 01:24:06;;;;;;;12.70;5.60;;;;;;;;;;6297595;22;20015;-55
2022/04/20 01:26:32;;;;;;;9.85;5.78;;;;;;;;;;6294137;22;20018;-49
2022/04/20 01:28:58;;;;;;;13.63;5.75;;;;;;;;;;6297423;22;20016;-50
2022/04/20 01:31:23;;;;;;;6.70;4.50;;;;;;;;;;6296109;22;20022;-51
2022/04/20 01:33:48;;;;;;;11.35;6.05;;;;;;;;;;6300359;22;20022;-49
2022/04/20 01:36:14;;;;;;;10.15;4.80;;;;;;;;;;6296850;22;20022;-51
2022/04/20 01:38:39;;;;;;;9.10;4.95;;;;;;;;;;6299991;22;20458;-52
2022/04/20 01:41:05;;;;;;;11.32;5.32;;;;;;;;;;6298705;22;20045;-52
2022/04/20 01:43:30;;;;;;;7.75;4.35;;;;;;;;;;6299053;22;20011;-50
2022/04/20 01:45:55;;;;;;;10.50;5.40;;;;;;;;;;6298060;22;20077;-49
2022/04/20 01:48:21;;;;;;;7.35;4.80;;;;;;;;;;6299338;22;20038;-52
2022/04/20 01:53:30;;;;;;;8.65;5.68;;;;;;;;;;6298679;22;20804;-51
2022/04/20 01:55:55;;;;;;;10.98;4.47;;;;;;;;;;6296603;22;20620;-50
2022/04/20 01:58:20;;;;;;;6.55;4.15;;;;;;;;;;6296425;22;20008;-53
2022/04/20 02:00:46;;;;;;;7.07;4.68;;;;;;;;;;6297998;22;20065;-50
2022/04/20 02:03:11;;;;;;;13.68;5.53;;;;;;;;;;6299171;22;20035;-52
2022/04/20 02:05:37;;;;;;;8.13;5.03;;;;;;;;;;6297124;22;20350;-48
2022/04/20 02:08:02;;;;;;;12.77;5.38;;;;;;;;;;6300422;22;20019;-51
2022/04/20 02:10:28;;;;;;;10.77;5.28;;;;;;;;;;6296265;22;20019;-50
2022/04/20 02:12:53;;;;;;;9.75;4.70;;;;;;;;;;6299245;22;20425;-52
2022/04/20 02:15:18;;;;;;;8.75;4.38;;;;;;;;;;6297203;22;20019;-50
2022/04/20 02:17:43;;;;;;;8.23;4.18;;;;;;;;;;6299930;22;20045;-49
2022/04/20 02:20:09;;;;;;;15.40;5.78;;;;;;;;;;6298096;22;20012;-48
2022/04/20 02:22:34;;;;;;;6.85;4.80;;;;;;;;;;6298118;22;20019;-48
2022/04/20 02:24:59;;;;;;;9.82;5.70;;;;;;;;;;6298298;22;20071;-52
2022/04/20 02:27:25;;;;;;;15.25;5.93;;;;;;;;;;6298378;22;20039;-48
2022/04/20 02:29:51;;;;;;;9.23;5.55;;;;;;;;;;6290975;22;20011;-48
2022/04/20 02:32:16;;;;;;;13.25;5.50;;;;;;;;;;6298318;22;20083;-51
2022/04/20 02:34:41;;;;;;;11.98;6.03;;;;;;;;;;6297942;22;20015;-47
2022/04/20 02:37:07;;;;;;;7.80;4.72;;;;;;;;;;6296745;22;20011;-51
2022/04/20 02:39:33;;;;;;;18.17;5.38;;;;;;;;;;6297575;22;20184;-53
2022/04/20 02:41:58;;;;;;;11.00;6.55;;;;;;;;;;6298829;22;20049;-51
2022/04/20 02:44:23;;;;;;;9.38;5.55;;;;;;;;;;6297029;22;20211;-50
2022/04/20 02:46:48;;;;;;;9.52;5.47;;;;;;;;;;6298530;22;20027;-48
2022/04/20 02:49:15;;;;;;;12.05;5.25;;;;;;;;;;6295619;22;20019;-51
2022/04/20 02:51:40;;;;;;;10.30;5.25;;;;;;;;;;6298283;22;20031;-48
2022/04/20 02:54:06;;;;;;;13.25;6.47;;;;;;;;;;6297345;22;20015;-49
2022/04/20 02:56:31;;;;;;;8.98;5.45;;;;;;;;;;6297513;22;20099;-49
2022/04/20 02:58:56;;;;;;;11.50;5.82;;;;;;;;;;6296812;22;20022;-47
2022/04/20 03:01:22;;;;;;;11.10;5.68;;;;;;;;;;6296931;22;20027;-49
2022/04/20 03:03:47;;;;;;;8.18;5.43;;;;;;;;;;6290323;22;20011;-50
2022/04/20 03:06:12;;;;;;;14.20;5.50;;;;;;;;;;6295938;22;20024;-48
2022/04/20 03:08:38;;;;;;;9.60;6.13;;;;;;;;;;6298453;22;20018;-49
2022/04/20 03:11:03;;;;;;;9.88;5.90;;;;;;;;;;6298098;22;20018;-48
2022/04/20 03:13:29;;;;;;;9.88;5.65;;;;;;;;;;6296300;22;20011;-48
2022/04/20 03:15:54;;;;;;;10.52;5.25;;;;;;;;;;6297585;22;20021;-48
2022/04/20 03:18:19;;;;;;;7.63;4.80;;;;;;;;;;6298691;22;20432;-50
2022/04/20 03:20:45;;;;;;;9.98;5.43;;;;;;;;;;6297335;22;20077;-52
2022/04/20 03:23:12;;;;;;;10.77;6.10;;;;;;;;;;6298266;22;20023;-50
2022/04/20 03:25:37;;;;;;;11.18;5.80;;;;;;;;;;6295829;22;20184;-48
2022/04/20 03:28:03;;;;;;;10.18;5.75;;;;;;;;;;6298291;22;20014;-51
2022/04/20 03:30:28;;;;;;;9.93;5.82;;;;;;;;;;6294564;22;20152;-49
2022/04/20 03:32:54;;;;;;;10.32;5.90;;;;;;;;;;6297890;22;20003;-50
2022/04/20 03:35:19;;;;;;;10.88;5.97;;;;;;;;;;6294128;22;20011;-49
2022/04/20 03:37:45;;;;;;;8.60;5.82;;;;;;;;;;6298191;22;20021;-50
2022/04/20 03:40:10;;;;;;;12.07;6.55;;;;;;;;;;6297618;22;20196;-53
2022/04/20 03:42:36;;;;;;;10.75;6.00;;;;;;;;;;6296045;22;20042;-47
2022/04/20 03:45:01;;;;;;;16.05;6.15;;;;;;;;;;6298172;22;20066;-48
2022/04/20 03:47:26;;;;;;;10.18;5.18;;;;;;;;;;6296216;22;20041;-47
2022/04/20 03:49:52;;;;;;;11.00;6.00;;;;;;;;;;6297898;22;20023;-50
2022/04/20 03:52:17;;;;;;;10.80;6.18;;;;;;;;;;6295987;22;20015;-52
2022/04/20 03:54:42;;;;;;;10.05;6.47;;;;;;;;;;6298323;22;20038;-48
2022/04/20 03:57:07;;;;;;;13.55;7.07;;;;;;;;;;6296357;22;20015;-48
2022/04/20 03:59:36;;;;;;;8.90;5.47;;;;;;;;;;6297610;22;20018;-49
2022/04/20 04:02:02;;;;;;;14.48;7.63;;;;;;;;;;6296545;22;20041;-50
2022/04/20 04:04:27;;;;;;;12.48;5.95;;;;;;;;;;6297934;22;20011;-51
2022/04/20 04:06:53;;;;;;;14.40;7.07;;;;;;;;;;6295247;22;20015;-52
2022/04/20 04:09:18;;;;;;;12.40;7.35;;;;;;;;;;6294943;22;20018;-48
2022/04/20 04:11:43;;;;;;;12.00;7.68;;;;;;;;;;6293580;22;20371;-48
2022/04/20 04:14:09;;;;;;;13.75;8.15;;;;;;;;;;6297152;22;20022;-48
2022/04/20 04:16:36;;;;;;;13.60;7.38;;;;;;;;;;6296386;22;20082;-50
2022/04/20 04:19:05;;;;;;;15.02;8.55;;;;;;;;;;6299124;22;20012;-47
2022/04/20 04:21:39;;;;;;;14.73;7.72;;;;;;;;;;6295823;22;20019;-51
2022/04/20 04:24:05;;;;;;;15.52;7.93;;;;;;;;;;6297252;22;20011;-51
2022/04/20 04:26:31;;;;;;;16.30;8.60;;;;;;;;;;6296707;22;20029;-47
2022/04/20 04:28:58;;;;;;;15.90;9.43;;;;;;;;;;6297475;22;20059;-46
2022/04/20 04:31:23;;;;;;;21.05;9.00;;;;;;;;;;6297084;22;20473;-49
2022/04/20 04:33:48;;;;;;;16.05;8.75;;;;;;;;;;6297331;22;20030;-47
2022/04/20 04:36:14;;;;;;;17.33;7.88;;;;;;;;;;6297036;22;20080;-49
2022/04/20 04:38:39;;;;;;;18.02;9.13;;;;;;;;;;6297786;22;20018;-52
2022/04/20 04:41:04;;;;;;;15.23;9.23;;;;;;;;;;6297433;22;20475;-51
2022/04/20 04:43:29;;;;;;;21.38;10.18;;;;;;;;;;6295826;22;20631;-50
2022/04/20 04:48:39;;;;;;;27.83;12.93;;;;;;;;;;6294886;22;20026;-48
2022/04/20 04:51:05;;;;;;;25.08;13.05;;;;;;;;;;6297969;22;20011;-50
2022/04/20 04:53:31;;;;;;;29.63;13.07;;;;;;;;;;6295485;22;20480;-51
2022/04/20 04:55:56;;;;;;;30.10;15.23;;;;;;;;;;6298966;22;20494;-49
2022/04/20 04:58:21;;;;;;;29.00;15.35;;;;;;;;;;6295939;22;20019;-49
2022/04/20 05:00:47;;;;;;;31.67;15.27;;;;;;;;;;6298279;22;20038;-52
2022/04/20 05:03:14;;;;;;;26.23;15.43;;;;;;;;;;6294555;22;20031;-53
2022/04/20 05:05:41;;;;;;;33.30;16.05;;;;;;;;;;6297624;22;20011;-50
2022/04/20 05:08:06;;;;;;;32.03;16.23;;;;;;;;;;6297150;22;20403;-48
2022/04/20 05:10:31;;;;;;;29.50;16.90;;;;;;;;;;6295896;22;20179;-52
2022/04/20 05:12:58;;;;;;;27.65;16.30;;;;;;;;;;6297494;22;20022;-48
2022/04/20 05:15:23;;;;;;;28.85;15.52;;;;;;;;;;6294861;22;20009;-49
2022/04/20 05:17:48;;;;;;;34.10;18.88;;;;;;;;;;6297588;22;20480;-49
2022/04/20 05:20:13;;;;;;;36.17;17.95;;;;;;;;;;6294519;22;20007;-50
2022/04/20 05:22:39;;;;;;;35.60;17.88;;;;;;;;;;6297570;22;20023;-49
2022/04/20 05:25:04;;;;;;;35.33;19.38;;;;;;;;;;6295873;22;20550;-49
2022/04/20 05:27:29;;;;;;;34.25;19.15;;;;;;;;;;6296509;22;20030;-51
2022/04/20 05:29:55;;;;;;;32.72;18.35;;;;;;;;;;6294933;22;20023;-50
2022/04/20 05:32:20;;;;;;;43.67;21.00;;;;;;;;;;6296490;22;20065;-50
2022/04/20 05:34:45;;;;;;;32.95;19.08;;;;;;;;;;6295683;22;20020;-51
2022/04/20 05:42:38;;;;;;;37.40;19.05;;;;;;;;;;6297234;22;20072;-51
2022/04/20 05:45:04;;;;;;;35.90;18.92;;;;;;;;;;6296464;22;20008;-52
2022/04/20 05:47:29;;;;;;;39.10;21.25;;;;;;;;;;6296446;22;20052;-52
2022/04/20 05:49:55;;;;;;;39.55;20.67;;;;;;;;;;6296673;22;20027;-50
2022/04/20 05:52:20;;;;;;;40.53;20.50;;;;;;;;;;6296496;22;20011;-53
2022/04/20 05:54:45;;;;;;;35.15;20.17;;;;;;;;;;6297509;22;20007;-50
2022/04/20 05:57:10;;;;;;;40.83;20.60;;;;;;;;;;6295979;22;20076;-52
2022/04/20 05:59:36;;;;;;;42.38;22.17;;;;;;;;;;6298149;22;20404;-47
2022/04/20 06:02:01;;;;;;;42.45;20.83;;;;;;;;;;6295226;22;20026;-48
2022/04/20 06:04:28;;;;;;;46.55;22.08;;;;;;;;;;6297103;22;20024;-47
2022/04/20 06:06:53;;;;;;;43.25;22.23;;;;;;;;;;6293636;22;20023;-52
2022/04/20 06:09:18;;;;;;;45.85;21.77;;;;;;;;;;6296893;22;20007;-53
2022/04/20 06:11:45;;;;;;;39.13;21.42;;;;;;;;;;6295152;22;20014;-51
2022/04/20 06:14:10;;;;;;;41.20;22.98;;;;;;;;;;6297413;22;20293;-50
2022/04/20 06:16:35;;;;;;;52.15;22.63;;;;;;;;;;6294585;22;20394;-50
2022/04/20 06:19:01;;;;;;;39.58;22.55;;;;;;;;;;6299081;22;20014;-51
2022/04/20 06:21:26;;;;;;;41.03;22.35;;;;;;;;;;6296184;22;20015;-51
2022/04/20 06:23:51;;;;;;;43.38;22.27;;;;;;;;;;6299447;22;20016;-53
2022/04/20 06:26:17;;;;;;;49.50;22.58;;;;;;;;;;6295092;22;20017;-52
2022/04/20 06:28:42;;;;;;;40.08;21.45;;;;;;;;;;6299493;22;20027;-51
2022/04/20 06:31:08;;;;;;;45.08;21.58;;;;;;;;;;6297810;22;20030;-53
2022/04/20 06:33:33;;;;;;;41.90;21.77;;;;;;;;;;6296131;22;20022;-52
2022/04/20 06:36:00;;;;;;;45.80;22.95;;;;;;;;;;6298562;22;20399;-53
2022/04/20 06:38:26;;;;;;;43.63;21.30;;;;;;;;;;6295801;22;20381;-53
2022/04/20 06:40:52;;;;;;;44.90;23.45;;;;;;;;;;6298963;22;20057;-54
2022/04/20 06:43:17;;;;;;;43.63;21.50;;;;;;;;;;6298350;22;20020;-52
2022/04/20 06:45:44;;;;;;;39.90;21.88;;;;;;;;;;6298964;22;20063;-49
2022/04/20 06:48:09;;;;;;;40.20;19.98;;;;;;;;;;6298519;22;20011;-51
2022/04/20 06:50:36;;;;;;;39.97;20.23;;;;;;;;;;6296948;22;20106;-50
2022/04/20 06:58:31;;;;;;;39.63;21.48;;;;;;;;;;6296289;22;20073;-54
2022/04/20 07:00:57;;;;;;;41.88;21.38;;;;;;;;;;6297253;22;20018;-52
2022/04/20 07:03:23;;;;;;;43.05;22.13;;;;;;;;;;6295430;22;20019;-52
2022/04/20 07:05:48;;;;;;;40.53;22.20;;;;;;;;;;6296642;22;20015;-50
2022/04/20 07:08:14;;;;;;;49.13;23.17;;;;;;;;;;6296653;22;20091;-50
2022/04/20 07:10:39;;;;;;;47.10;23.45;;;;;;;;;;6296813;22;20545;-50
2022/04/20 07:13:04;;;;;;;42.47;21.58;;;;;;;;;;6298202;22;20026;-51
2022/04/20 07:15:30;;;;;;;45.83;23.27;;;;;;;;;;6287678;22;20012;-51
2022/04/20 07:17:55;;;;;;;43.45;22.85;;;;;;;;;;6298319;22;20022;-51
2022/04/20 07:20:20;;;;;;;48.33;22.15;;;;;;;;;;6297443;22;20085;-52
2022/04/20 07:22:49;;;;;;;49.50;22.60;;;;;;;;;;6297239;22;20052;-50
2022/04/20 07:25:17;;;;;;;40.90;21.00;;;;;;;;;;6295543;22;20019;-54
2022/04/20 07:27:45;;;;;;;43.13;22.23;;;;;;;;;;6298577;22;20231;-51
2022/04/20 07:30:11;;;;;;;40.83;20.42;;;;;;;;;;6296451;22;20007;-50
2022/04/20 07:32:36;;;;;;;46.03;23.33;;;;;;;;;;6298731;22;20084;-50
2022/04/20 07:35:01;;;;;;;43.40;22.05;;;;;;;;;;6297646;22;20030;-50
2022/04/20 07:37:26;;;;;;;45.28;23.73;;;;;;;;;;6297201;22;20007;-53
2022/04/20 07:39:52;;;;;;;44.63;22.35;;;;;;;;;;6298029;22;20011;-54
2022/04/20 07:42:20;;;;;;;50.75;22.30;;;;;;;;;;6296739;22;20019;-52
2022/04/20 07:44:45;;;;;;;44.33;22.48;;;;;;;;;;6299448;22;20022;-54
2022/04/20 07:47:10;;;;;;;39.42;20.27;;;;;;;;;;6293502;22;20015;-55
2022/04/20 07:52:19;;;;;;;37.63;21.30;;;;;;;;;;6293205;22;20089;-50
2022/04/20 07:54:45;;;;;;;49.53;22.00;;;;;;;;;;6295033;22;20018;-50
2022/04/20 07:57:14;;;;;;;46.05;21.40;;;;;;;;;;6294329;22;20012;-51
2022/04/20 07:59:39;;;;;;;43.47;20.50;;;;;;;;;;6293420;22;20035;-50
2022/04/20 08:02:04;;;;;;;33.92;16.75;;;;;;;;;;6294009;22;20019;-54
2022/04/20 08:04:30;;;;;;;43.03;19.75;;;;;;;;;;6293719;22;20015;-55
2022/04/20 08:06:55;;;;;;;38.83;21.90;;;;;;;;;;6294051;22;20018;-50
2022/04/20 08:09:20;;;;;;;41.92;20.05;;;;;;;;;;6293345;22;20086;-51
2022/04/20 08:11:45;;;;;;;45.70;21.10;;;;;;;;;;6290169;22;20023;-51
2022/04/20 08:14:11;;;;;;;42.72;19.73;;;;;;;;;;6287324;22;20344;-52
2022/04/20 08:16:36;;;;;;;40.67;21.30;;;;;;;;;;6294833;22;20003;-51
2022/04/20 08:19:01;;;;;;;45.47;21.92;;;;;;;;;;6293731;22;20521;-53
2022/04/20 08:21:27;;;;;;;51.38;21.52;;;;;;;;;;6297433;22;20007;-53
2022/04/20 08:23:52;;;;;;;39.75;21.92;;;;;;;;;;6294268;22;20011;-55
2022/04/20 08:26:17;;;;;;;38.28;21.00;;;;;;;;;;6296562;22;20011;-52
2022/04/20 08:28:43;;;;;;;36.20;19.88;;;;;;;;;;6297180;22;20018;-49
2022/04/20 08:31:08;;;;;;;39.92;20.02;;;;;;;;;;6298725;22;20031;-54
2022/04/20 08:33:33;;;;;;;37.72;18.65;;;;;;;;;;6295987;22;20301;-53
2022/04/20 08:35:59;;;;;;;38.20;21.33;;;;;;;;;;6298306;22;20011;-53
2022/04/20 08:38:24;;;;;;;38.53;19.60;;;;;;;;;;6294324;22;20035;-52
2022/04/20 08:40:50;;;;;;;34.78;18.23;;;;;;;;;;6287105;22;20329;-51
2022/04/20 08:43:15;;;;;;;30.83;18.00;;;;;;;;;;6291771;22;20023;-51
2022/04/20 08:45:42;;;;;;;35.60;16.30;;;;;;;;;;6293741;22;20101;-51
2022/04/20 08:48:07;;;;;;;31.35;17.52;;;;;;;;;;6296156;22;20011;-51
2022/04/20 08:50:33;;;;;;;38.67;18.10;;;;;;;;;;6295909;22;20030;-52
2022/04/20 08:52:58;;;;;;;33.88;16.15;;;;;;;;;;6286791;22;20015;-52
2022/04/20 08:55:24;;;;;;;32.05;16.52;;;;;;;;;;6287551;22;20065;-51
2022/04/20 08:57:52;;;;;;;33.45;15.80;;;;;;;;;;6295356;22;20049;-49
2022/04/20 09:00:28;;;;;;;39.03;15.95;;;;;;;;;;6293049;22;20023;-51
2022/04/20 09:02:58;;;;;;;31.63;15.50;;;;;;;;;;6295553;22;20022;-54
2022/04/20 09:05:24;;;;;;;26.92;15.77;;;;;;;;;;6295517;22;20048;-50
2022/04/20 09:07:49;;;;;;;32.58;15.32;;;;;;;;;;6296780;22;20007;-51
2022/04/20 09:10:16;;;;;;;29.23;14.55;;;;;;;;;;6295251;22;20033;-50
2022/04/20 09:12:42;;;;;;;27.88;13.82;;;;;;;;;;6298051;22;20011;-52
2022/04/20 09:15:09;;;;;;;21.17;12.90;;;;;;;;;;6296751;22;20104;-53
2022/04/20 09:17:39;;;;;;;25.20;13.88;;;;;;;;;;6296270;22;20011;-49
2022/04/20 09:20:05;;;;;;;25.80;13.77;;;;;;;;;;6297619;22;20470;-52
2022/04/20 09:22:30;;;;;;;28.35;14.07;;;;;;;;;;6295974;22;20621;-53
2022/04/20 09:25:14;;;;;;;27.20;14.00;;;;;;;;;;6297389;22;20025;-48
2022/04/20 09:27:41;;;;;;;23.88;13.85;;;;;;;;;;6294968;22;20460;-49
2022/04/20 09:30:09;;;;;;;22.10;11.57;;;;;;;;;;6297947;22;20025;-50
2022/04/20 09:32:39;;;;;;;22.00;13.15;;;;;;;;;;6296841;22;20008;-50
2022/04/20 09:35:08;;;;;;;27.15;13.60;;;;;;;;;;6298038;22;20026;-52
2022/04/20 09:37:33;;;;;;;25.23;14.27;;;;;;;;;;6296032;22;20003;-51
2022/04/20 09:40:00;;;;;;;25.02;11.80;;;;;;;;;;6298290;22;20043;-51
2022/04/20 09:42:25;;;;;;;29.00;13.95;;;;;;;;;;6295329;22;20020;-54
2022/04/20 09:44:59;;;;;;;22.88;12.38;;;;;;;;;;6297529;22;20033;-54
2022/04/20 09:50:10;;;;;;;20.73;11.85;;;;;;;;;;6295125;22;20100;-52
2022/04/20 09:52:35;;;;;;;23.00;13.23;;;;;;;;;;6297541;22;20019;-53
2022/04/20 09:55:01;;;;;;;22.73;13.55;;;;;;;;;;6297894;22;20015;-52
2022/04/20 09:57:26;;;;;;;26.27;12.32;;;;;;;;;;6299692;22;20064;-52
2022/04/20 09:59:54;;;;;;;23.77;12.40;;;;;;;;;;6297879;22;20031;-50
2022/04/20 10:02:20;;;;;;;27.33;12.43;;;;;;;;;;6298000;22;20015;-50
2022/04/20 10:04:47;;;;;;;22.25;12.45;;;;;;;;;;6298383;22;20011;-50
2022/04/20 10:07:13;;;;;;;24.02;12.18;;;;;;;;;;6299007;22;20045;-49
2022/04/20 10:09:38;;;;;;;24.23;11.75;;;;;;;;;;6298184;22;20019;-53
2022/04/20 10:12:04;;;;;;;23.05;12.20;;;;;;;;;;6297473;22;20408;-51
2022/04/20 10:17:18;;;;;;;23.75;12.32;;;;;;;;;;6298438;22;20026;-51
2022/04/20 10:19:44;;;;;;;23.98;11.20;;;;;;;;;;6294850;22;20098;-50
2022/04/20 10:22:10;;;;;;;19.17;11.55;;;;;;;;;;6298662;22;20025;-50
2022/04/20 10:24:38;;;;;;;13.90;7.35;;;;;;;;;;6296802;22;20019;-51
2022/04/20 10:27:05;;;;;;;25.45;12.25;;;;;;;;;;6299674;22;20079;-52
2022/04/20 10:29:37;;;;;;;24.10;10.15;;;;;;;;;;6296872;22;20033;-52
2022/04/20 10:32:02;;;;;;;22.38;10.73;;;;;;;;;;6298375;22;20018;-53
2022/04/20 10:34:28;;;;;;;23.75;10.98;;;;;;;;;;6296652;22;20015;-53
2022/04/20 10:37:01;;;;;;;21.60;11.88;;;;;;;;;;6297591;22;20063;-51
2022/04/20 10:39:27;;;;;;;21.17;10.27;;;;;;;;;;6298203;22;20012;-52
2022/04/20 10:42:17;;;;;;;17.35;10.90;;;;;;;;;;6298450;22;20027;-54
2022/04/20 10:44:55;;;;;;;21.70;10.65;;;;;;;;;;6299591;22;20070;-52
2022/04/20 10:47:42;;;;;;;22.70;10.68;;;;;;;;;;6296739;22;20039;-50
2022/04/20 10:50:13;;;;;;;22.98;10.05;;;;;;;;;;6296922;22;20054;-50
2022/04/20 10:52:39;;;;;;;20.20;9.80;;;;;;;;;;6298811;22;20034;-53
2022/04/20 10:55:04;;;;;;;20.23;10.23;;;;;;;;;;6298103;22;20018;-51
2022/04/20 10:57:37;;;;;;;19.02;10.25;;;;;;;;;;6296203;22;20019;-51
2022/04/20 11:00:17;;;;;;;15.32;8.32;;;;;;;;;;6296225;22;20018;-51
2022/04/20 11:02:49;;;;;;;20.13;9.65;;;;;;;;;;6298505;22;20054;-52
2022/04/20 11:05:14;;;;;;;18.02;10.43;;;;;;;;;;6294952;22;20046;-54
2022/04/20 11:08:00;;;;;;;16.85;7.85;;;;;;;;;;6292737;22;20012;-49
2022/04/20 11:10:25;;;;;;;13.73;7.75;;;;;;;;;;6293289;22;20011;-52
2022/04/20 11:18:39;;;;;;;16.92;8.75;;;;;;;;;;6297755;22;20046;-49
2022/04/20 11:21:07;;;;;;;17.38;9.30;;;;;;;;;;6286002;22;20325;-49
2022/04/20 11:23:48;;;;;;;16.10;8.32;;;;;;;;;;6289844;22;20022;-52
2022/04/20 11:26:19;;;;;;;14.35;8.82;;;;;;;;;;6287061;22;20061;-52
2022/04/20 11:28:45;;;;;;;19.10;8.95;;;;;;;;;;6290431;22;20415;-52
2022/04/20 11:31:11;;;;;;;11.32;6.47;;;;;;;;;;6290442;22;20026;-50
2022/04/20 11:33:37;;;;;;;14.65;7.53;;;;;;;;;;6291393;22;20015;-50
2022/04/20 11:36:02;;;;;;;19.42;9.77;;;;;;;;;;6298554;22;20019;-48
2022/04/20 11:38:41;;;;;;;11.85;6.25;;;;;;;;;;6296060;22;20019;-49
2022/04/20 11:41:06;;;;;;;17.27;8.18;;;;;;;;;;6296196;22;20022;-52
2022/04/20 11:43:32;;;;;;;15.02;8.35;;;;;;;;;;6294636;22;20098;-51
2022/04/20 11:45:57;;;;;;;13.82;8.38;;;;;;;;;;6298115;22;20015;-49
2022/04/20 11:48:23;;;;;;;12.77;6.93;;;;;;;;;;6295574;22;20011;-53
2022/04/20 11:50:56;;;;;;;14.55;7.22;;;;;;;;;;6298502;22;20430;-54
2022/04/20 11:53:21;;;;;;;14.95;6.75;;;;;;;;;;6296147;22;20008;-52
2022/04/20 11:55:47;;;;;;;11.20;6.35;;;;;;;;;;6298634;22;20023;-49
2022/04/20 11:58:15;;;;;;;12.63;6.88;;;;;;;;;;6295730;22;20315;-53
2022/04/20 12:00:41;;;;;;;13.52;6.82;;;;;;;;;;6292950;22;20004;-52
2022/04/20 12:03:07;;;;;;;15.52;6.22;;;;;;;;;;6297777;22;20034;-50
2022/04/20 12:05:32;;;;;;;13.95;6.90;;;;;;;;;;6294825;22;20026;-51
2022/04/20 12:07:57;;;;;;;11.20;7.25;;;;;;;;;;6298493;22;20046;-51
2022/04/20 12:10:23;;;;;;;13.82;7.00;;;;;;;;;;6296044;22;20031;-51
2022/04/20 12:12:49;;;;;;;9.23;6.63;;;;;;;;;;6291631;22;20372;-50
2022/04/20 12:15:14;;;;;;;10.57;6.40;;;;;;;;;;6287178;22;20073;-53
2022/04/20 12:17:41;;;;;;;12.25;6.75;;;;;;;;;;6295148;22;20015;-52
2022/04/20 12:20:07;;;;;;;10.30;6.47;;;;;;;;;;6292468;22;20015;-52
2022/04/20 12:22:32;;;;;;;11.50;6.38;;;;;;;;;;6290389;22;20033;-51
2022/04/20 12:25:07;;;;;;;11.88;7.25;;;;;;;;;;6293582;22;20091;-48
2022/04/20 12:27:48;;;;;;;12.27;6.68;;;;;;;;;;6294244;22;20038;-51
2022/04/20 12:30:14;;;;;;;14.02;6.75;;;;;;;;;;6292505;22;20019;-54
2022/04/20 12:32:41;;;;;;;12.77;7.03;;;;;;;;;;6292285;22;20019;-52
2022/04/20 12:35:06;;;;;;;13.48;6.95;;;;;;;;;;6291889;22;20065;-50
2022/04/20 12:37:33;;;;;;;10.73;6.72;;;;;;;;;;6292449;22;20296;-50
2022/04/20 12:40:18;;;;;;;6.32;4.03;;;;;;;;;;6288227;22;20091;-50
2022/04/20 12:43:05;;;;;;;11.85;7.50;;;;;;;;;;6293509;22;20026;-51
2022/04/20 12:45:31;;;;;;;16.08;8.45;;;;;;;;;;6295673;22;20022;-51
2022/04/20 12:48:11;;;;;;;13.57;6.93;;;;;;;;;;6296595;22;20011;-55
2022/04/20 12:50:37;;;;;;;25.42;8.38;;;;;;;;;;6294831;22;20656;-53
2022/04/20 12:53:02;;;;;;;13.77;7.35;;;;;;;;;;6297376;22;20121;-52
2022/04/20 12:55:41;;;;;;;14.55;7.53;;;;;;;;;;6294358;22;20530;-53
2022/04/20 13:03:39;;;;;;;14.48;7.07;;;;;;;;;;6294128;22;20033;-50
2022/04/20 13:06:06;;;;;;;15.48;8.02;;;;;;;;;;6293801;22;20012;-50
2022/04/20 13:08:32;;;;;;;17.20;8.50;;;;;;;;;;6293206;22;20099;-53
2022/04/20 13:10:58;;;;;;;15.18;7.70;;;;;;;;;;6295057;22;20210;-52
2022/04/20 13:13:25;;;;;;;15.63;7.38;;;;;;;;;;6290383;22;20011;-54
2022/04/20 13:15:50;;;;;;;12.48;8.57;;;;;;;;;;6298772;22;20007;-52
2022/04/20 13:18:15;;;;;;;16.15;8.30;;;;;;;;;;6290511;22;20011;-51
2022/04/20 13:20:41;;;;;;;13.10;8.18;;;;;;;;;;6297327;22;20396;-49
2022/04/20 13:23:06;;;;;;;14.90;8.38;;;;;;;;;;6286759;22;20509;-50
2022/04/20 13:28:15;;;;;;;14.80;7.50;;;;;;;;;;6285470;22;20019;-53
2022/04/20 13:30:41;;;;;;;11.77;6.82;;;;;;;;;;6291077;22;20007;-50
2022/04/20 13:33:07;;;;;;;15.23;8.15;;;;;;;;;;6296471;22;20122;-54
2022/04/20 13:35:33;;;;;;;13.13;6.75;;;;;;;;;;6294572;22;20011;-54
2022/04/20 13:37:58;;;;;;;11.95;6.53;;;;;;;;;;6297519;22;20015;-51
2022/04/20 13:40:24;;;;;;;16.38;7.90;;;;;;;;;;6295123;22;20015;-51
2022/04/20 13:42:49;;;;;;;13.15;7.05;;;;;;;;;;6297797;22;20034;-59
2022/04/20 13:45:15;;;;;;;16.48;7.60;;;;;;;;;;6289991;22;20016;-55
2022/04/20 13:47:40;;;;;;;14.48;6.82;;;;;;;;;;6297085;22;20020;-54
2022/04/20 13:50:08;;;;;;;9.75;4.45;;;;;;;;;;6296522;22;20034;-51
2022/04/20 13:52:34;;;;;;;13.20;6.43;;;;;;;;;;6295638;22;20043;-50
2022/04/20 13:54:59;;;;;;;10.95;6.80;;;;;;;;;;6296348;22;20072;-54
2022/04/20 13:57:25;;;;;;;8.48;6.07;;;;;;;;;;6292895;22;20019;-51
2022/04/20 13:59:50;;;;;;;11.98;7.25;;;;;;;;;;6298106;22;20102;-50
2022/04/20 14:02:16;;;;;;;11.02;6.25;;;;;;;;;;6292950;22;20023;-52
2022/04/20 14:04:41;;;;;;;9.35;6.30;;;;;;;;;;6298077;22;20003;-52
2022/04/20 14:07:06;;;;;;;8.35;4.22;;;;;;;;;;6294729;22;20019;-53
2022/04/20 14:09:33;;;;;;;10.63;5.38;;;;;;;;;;6296084;22;20771;-55
2022/04/20 14:11:59;;;;;;;13.15;6.68;;;;;;;;;;6293372;22;20007;-52
2022/04/20 14:14:24;;;;;;;7.07;4.72;;;;;;;;;;6296300;22;20012;-51
2022/04/20 14:16:49;;;;;;;15.45;6.00;;;;;;;;;;6294914;22;20098;-53
2022/04/20 14:19:15;;;;;;;11.48;6.65;;;;;;;;;;6295988;22;20008;-52
2022/04/20 14:21:40;;;;;;;12.60;5.40;;;;;;;;;;6294706;22;20031;-48
2022/04/20 14:24:06;;;;;;;10.73;4.72;;;;;;;;;;6292463;22;20096;-52
2022/04/20 14:32:12;;;;;;;10.82;4.55;;;;;;;;;;6297097;22;20030;-49
2022/04/20 14:34:44;;;;;;;7.90;5.37;;;;;;;;;;6294477;22;20097;-52
2022/04/20 14:37:10;;;;;;;7.38;4.60;;;;;;;;;;6290911;22;20019;-54
2022/04/20 14:39:36;;;;;;;8.68;5.78;;;;;;;;;;6295646;22;20046;-49
2022/04/20 14:42:02;;;;;;;7.25;4.93;;;;;;;;;;6296544;22;20020;-52
2022/04/20 14:44:30;;;;;;;9.93;4.68;;;;;;;;;;6296924;22;20011;-53
2022/04/20 14:46:56;;;;;;;9.10;4.88;;;;;;;;;;6295109;22;20015;-52
2022/04/20 14:49:22;;;;;;;8.90;5.13;;;;;;;;;;6297637;22;20076;-52
2022/04/20 14:51:47;;;;;;;10.13;5.47;;;;;;;;;;6298883;22;20031;-52
2022/04/20 14:54:14;;;;;;;7.57;5.40;;;;;;;;;;6297193;22;20366;-52
2022/04/20 14:56:39;;;;;;;10.38;5.85;;;;;;;;;;6297588;22;20043;-50
2022/04/20 14:59:04;;;;;;;11.27;5.13;;;;;;;;;;6298434;22;20015;-52
2022/04/20 15:01:30;;;;;;;8.50;4.95;;;;;;;;;;6297574;22;20406;-49
2022/04/20 15:03:57;;;;;;;10.60;5.72;;;;;;;;;;6299336;22;20072;-50
2022/04/20 15:06:23;;;;;;;9.65;4.68;;;;;;;;;;6297319;22;20011;-51